• Join FlightAware (Why Join?)
  • Login
  • US Flag 
05:16AM EDT


 

Airport Tracker/Info


-or-


 

Live Flight TrackerFlight Track Log ✈ SLI2201 ✈ 16-May-2013 ✈ MMMY / MTY - MMCU / CUU

Flight Track Log - Related Links

Times and Time Zones

All times are in EDT time to prevent confusion due to time zone crossing. See the SLI2201 flight status page for this flight to view local times or setup timezone preferences in your user account.

Time Position Orientation Groundspeed Altitude Reporting Facility
EDT Latitude Longitude Course Direction KTS MPH feet Rate Location/Type
11:35PM 26.2472 -100.9944 301° West  Level Estimated
11:36PM 26.2895 -101.0754 300° West  Level Estimated
11:37PM 26.3318 -101.1565 300° West  Level Estimated
11:38PM 26.3740 -101.2376 300° West  Level Estimated
11:39PM 26.4162 -101.3188 300° West  Level Estimated
11:40PM 26.4584 -101.4001 300° West  Level Estimated
11:41PM 26.5005 -101.4815 300° West  Level Estimated
11:42PM 26.5425 -101.5628 300° West  Level Estimated
11:43PM 26.5846 -101.6443 300° West  Level Estimated
11:44PM 26.6265 -101.7258 300° West  Level Estimated
11:45PM 26.6684 -101.8074 300° West  Level Estimated
11:46PM 26.7103 -101.8890 300° West  Level Estimated
11:47PM 26.7522 -101.9707 300° West  Level Estimated
11:48PM 26.7939 -102.0524 300° West  Level Estimated
11:49PM 26.8357 -102.1342 300° West  Level Estimated
11:50PM 26.8774 -102.2161 300° West  Level Estimated
11:51PM 26.9190 -102.2980 300° West  Level Estimated
11:52PM 26.9606 -102.3800 300° West  Level Estimated
11:53PM 27.0021 -102.4621 300° West  Level Estimated
11:54PM 27.0436 -102.5442 300° West  Level Estimated
11:55PM 27.0851 -102.6264 300° West  Level Estimated
11:56PM 27.1265 -102.7086 300° West  Level Estimated
11:57PM 27.1678 -102.7909 299° West  Level Estimated
11:58PM 27.2092 -102.8733 299° West  Level Estimated
11:59PM 27.2504 -102.9557 299° West  Level Estimated
12:00AM 27.2916 -103.0381 299° West  Level Estimated
12:01AM 27.3328 -103.1207 299° West  Level Estimated
12:02AM 27.3739 -103.2033 299° West  Level Estimated
12:03AM 27.4149 -103.2859 299° West  Level Estimated
12:04AM 27.4560 -103.3687 299° West  Level Estimated
12:05AM 27.4969 -103.4514 299° West  Level Estimated
12:06AM 27.5379 -103.5343 299° West  Level Estimated
12:07AM 27.5787 -103.6172 299° West  Level Estimated
12:08AM 27.6196 -103.7002 299° West  Level Estimated
12:09AM 27.6603 -103.7832 299° West  Level Estimated
12:10AM 27.7010 -103.8663 299° West  Level Estimated
12:11AM 27.7417 -103.9495 299° West  Level Estimated
12:12AM 27.7823 -104.0327 299° West  Level Estimated
12:13AM 27.8229 -104.1160 299° West  Level Estimated
12:14AM 27.8634 -104.1993 299° West  Level Estimated
12:15AM 27.9039 -104.2827 299° West  Level Estimated
12:16AM 27.9443 -104.3662 299° West  Level Estimated
12:17AM 27.9847 -104.4497 299° West  Level Estimated
12:18AM 28.0250 -104.5333 299° West  Level Estimated
12:19AM 28.0653 -104.6169 299° West  Level Estimated
12:20AM 28.1055 -104.7007 299° West  Level Estimated
12:21AM 28.1457 -104.7844 299° West  Level Estimated
12:22AM 28.1858 -104.8683 299° West  Level Estimated
12:23AM 28.2258 -104.9522 298° West  Level Estimated
12:24AM 28.2659 -105.0361 298° West  Level Estimated
12:25AM 28.3058 -105.1202 298° West  Level Estimated
12:26AM 28.3457 -105.2043 298° West  Level Estimated
12:27AM 28.3856 -105.2884 298° West  Level Estimated
12:28AM 28.4254 -105.3727 298° West  Level Estimated
12:29AM 28.4652 -105.4569 298° West  Level Estimated
12:30AM 28.5049 -105.5413 298° West  Level Estimated
12:31AM 28.5445 -105.6257 298° West  Level Estimated
12:32AM 28.5841 -105.7102 298° West  Level Estimated
12:33AM 28.6237 -105.7947 298° West  Level Estimated
12:34AM 28.6632 -105.8793 298° West  Level Estimated
12:35AM 28.7026 -105.9640 298° West  Level Estimated
12:36AM 28.7029 -105.9646 298° West  Level Estimated
12:37AM 28.7029 -105.9646 152° Southeast  Level Estimated
12:38AM 28.7029 -105.9646 28° Northeast  Level Estimated
12:39AM 28.7029 -105.9646 152° Southeast  Level Estimated
12:40AM 28.7029 -105.9646 28° Northeast  Level Estimated
12:41AM 28.7029 -105.9646 152° Southeast  Level Estimated
12:42AM 28.7029 -105.9646 28° Northeast  Level Estimated
12:43AM 28.7029 -105.9646 152° Southeast  Level Estimated